Time;durP1;ratioP1;P1;durP2;ratioP2;P2;SDS_P1;SDS_P2;PMS_P1;PMS_P2;Temp;Humidity;BMP_temperature;BMP_pressure;BME280_temperature;BME280_humidity;BME280_pressure;Samples;Min_cycle;Max_cycle;Signal;HPM_P1;HPM_P2
2023/12/21 00:02:21;;;;;;;38.85;36.22;;;10.90;99.90;;;;;;5029868;28;20812;-75
2023/12/21 00:04:49;;;;;;;41.55;38.83;;;10.90;99.90;;;;;;5032027;28;20022;-75
2023/12/21 00:07:15;;;;;;;38.00;34.90;;;10.90;99.90;;;;;;5030309;28;20046;-75
2023/12/21 00:09:41;;;;;;;52.15;48.55;;;10.90;99.90;;;;;;5031821;28;20378;-75
2023/12/21 00:12:07;;;;;;;43.47;40.50;;;11.00;99.90;;;;;;5030313;28;20033;-75
2023/12/21 00:14:33;;;;;;;39.65;36.50;;;11.00;99.90;;;;;;5031857;28;20045;-75
2023/12/21 00:16:59;;;;;;;35.67;33.30;;;11.00;99.90;;;;;;5031101;28;20045;-74
2023/12/21 00:19:25;;;;;;;40.08;37.40;;;11.00;99.90;;;;;;5030711;28;20029;-71
2023/12/21 00:21:51;;;;;;;45.63;42.58;;;11.00;99.90;;;;;;5029218;28;20152;-72
2023/12/21 00:24:17;;;;;;;43.10;40.25;;;11.00;99.90;;;;;;5029253;28;20029;-71
2023/12/21 00:26:43;;;;;;;60.75;56.72;;;11.00;99.90;;;;;;5029978;28;20389;-71
2023/12/21 00:29:10;;;;;;;53.53;49.60;;;10.90;99.90;;;;;;5032084;28;20048;-71
2023/12/21 00:31:36;;;;;;;103.60;96.88;;;10.90;99.90;;;;;;5032572;28;20409;-72
2023/12/21 00:34:02;;;;;;;73.55;68.45;;;10.90;99.90;;;;;;5033829;28;20056;-71
2023/12/21 00:36:28;;;;;;;67.10;62.00;;;10.90;99.90;;;;;;5035189;28;20033;-71
2023/12/21 00:38:54;;;;;;;77.80;72.90;;;10.90;99.90;;;;;;5035193;28;20030;-71
2023/12/21 00:41:20;;;;;;;64.45;60.08;;;10.90;99.90;;;;;;5033880;28;20036;-72
2023/12/21 00:43:46;;;;;;;80.30;74.88;;;11.00;99.90;;;;;;5034771;28;20029;-71
2023/12/21 00:46:12;;;;;;;82.18;76.93;;;11.00;99.90;;;;;;5033223;28;20033;-71
2023/12/21 00:48:38;;;;;;;98.57;92.30;;;11.00;99.90;;;;;;5037337;28;20044;-72
2023/12/21 00:51:05;;;;;;;84.88;79.28;;;11.00;99.90;;;;;;5031689;28;20041;-71
2023/12/21 00:53:31;;;;;;;91.68;85.65;;;11.00;99.90;;;;;;5033230;28;20033;-72
2023/12/21 00:55:57;;;;;;;99.03;93.03;;;11.10;99.90;;;;;;5034847;28;20401;-72
2023/12/21 00:58:24;;;;;;;99.97;93.40;;;11.00;99.90;;;;;;5034078;28;20033;-71
2023/12/21 01:00:50;;;;;;;94.95;89.05;;;11.00;99.90;;;;;;5033903;28;20071;-71
2023/12/21 01:03:16;;;;;;;97.70;91.30;;;11.00;99.90;;;;;;5031488;28;20038;-71
2023/12/21 01:05:42;;;;;;;103.63;96.50;;;11.00;99.90;;;;;;5034523;28;20041;-72
2023/12/21 01:08:08;;;;;;;111.18;104.15;;;11.00;99.90;;;;;;5032799;28;20037;-71
2023/12/21 01:10:38;;;;;;;80.28;74.82;;;10.90;99.90;;;;;;5034552;28;20028;-72
2023/12/21 01:13:06;;;;;;;87.13;81.40;;;11.00;99.90;;;;;;5034883;28;20025;-71
2023/12/21 01:15:32;;;;;;;86.75;81.07;;;11.00;99.90;;;;;;5032832;28;20052;-72
2023/12/21 01:17:58;;;;;;;94.35;88.85;;;11.00;99.90;;;;;;5035099;28;20026;-71
2023/12/21 01:20:24;;;;;;;100.43;93.70;;;11.00;99.90;;;;;;5033783;28;20049;-71
2023/12/21 01:22:50;;;;;;;85.07;79.47;;;11.00;99.90;;;;;;5032895;28;20052;-76
2023/12/21 01:25:16;;;;;;;76.30;70.97;;;11.00;99.90;;;;;;5032228;28;20037;-75
2023/12/21 01:27:42;;;;;;;81.80;75.82;;;11.10;99.90;;;;;;5033628;28;20044;-75
2023/12/21 01:30:09;;;;;;;94.05;87.88;;;11.00;99.90;;;;;;5034148;28;20025;-75
2023/12/21 01:32:35;;;;;;;76.00;69.75;;;11.10;99.90;;;;;;5032901;28;20045;-74
2023/12/21 01:35:01;;;;;;;75.60;70.47;;;11.10;99.90;;;;;;5033197;28;20060;-76
2023/12/21 01:37:27;;;;;;;71.05;65.25;;;11.10;99.90;;;;;;5033963;28;20052;-75
2023/12/21 01:39:53;;;;;;;60.00;55.13;;;11.00;99.90;;;;;;5034057;28;20048;-74
2023/12/21 01:42:19;;;;;;;60.72;56.00;;;11.00;99.90;;;;;;5034201;28;20389;-75
2023/12/21 01:44:45;;;;;;;89.80;84.13;;;11.00;99.90;;;;;;5034551;28;20044;-75
2023/12/21 01:47:11;;;;;;;73.20;67.20;;;11.00;99.90;;;;;;5033668;28;20560;-75
2023/12/21 01:49:38;;;;;;;68.35;63.55;;;11.00;99.90;;;;;;5033031;28;20040;-75
2023/12/21 01:52:05;;;;;;;104.55;97.38;;;11.00;99.90;;;;;;5015779;28;20034;-75
2023/12/21 01:54:31;;;;;;;112.93;104.85;;;11.00;99.90;;;;;;5015990;28;20060;-75
2023/12/21 01:56:57;;;;;;;112.20;104.55;;;11.10;99.90;;;;;;5032413;28;20029;-75
2023/12/21 01:59:24;;;;;;;118.75;110.68;;;11.10;99.90;;;;;;5012970;28;20046;-75
2023/12/21 02:01:50;;;;;;;97.78;90.82;;;11.00;99.90;;;;;;5006651;28;20033;-75
2023/12/21 02:04:16;;;;;;;79.63;72.88;;;11.00;99.90;;;;;;5031106;28;20037;-75
2023/12/21 02:06:42;;;;;;;75.90;69.60;;;11.00;99.90;;;;;;5031703;28;20033;-75
2023/12/21 02:09:08;;;;;;;58.78;53.83;;;11.10;99.90;;;;;;5032978;28;20041;-75
2023/12/21 02:11:35;;;;;;;66.80;61.67;;;11.10;99.90;;;;;;5024060;28;20029;-75
2023/12/21 02:14:01;;;;;;;54.67;49.67;;;11.00;99.90;;;;;;5015311;28;20470;-74
2023/12/21 02:16:42;;;;;;;50.78;46.47;;;11.00;99.90;;;;;;5032974;28;20485;-75
2023/12/21 02:19:09;;;;;;;51.45;46.78;;;11.10;99.90;;;;;;5032098;28;20025;-74
2023/12/21 02:21:35;;;;;;;47.88;43.47;;;11.10;99.90;;;;;;5032295;28;20052;-75
2023/12/21 02:24:01;;;;;;;55.53;50.10;;;11.10;99.90;;;;;;5032647;28;20029;-75
2023/12/21 02:26:27;;;;;;;49.10;44.60;;;11.10;99.90;;;;;;5015100;28;20042;-75
2023/12/21 02:28:54;;;;;;;68.68;63.67;;;11.00;99.90;;;;;;5032154;28;20033;-75
2023/12/21 02:31:20;;;;;;;46.85;42.97;;;11.00;99.90;;;;;;5031529;28;20528;-75
2023/12/21 02:33:46;;;;;;;40.65;37.05;;;11.00;99.90;;;;;;5031862;28;20033;-75
2023/12/21 02:36:12;;;;;;;46.38;41.25;;;11.00;99.90;;;;;;5031864;28;20504;-75
2023/12/21 02:38:38;;;;;;;50.78;45.67;;;11.10;99.90;;;;;;5002612;28;20042;-75
2023/12/21 02:41:04;;;;;;;51.47;46.70;;;11.10;99.90;;;;;;5033298;28;20028;-75
2023/12/21 02:43:30;;;;;;;53.85;49.10;;;11.10;99.90;;;;;;5031435;28;20037;-75
2023/12/21 02:45:56;;;;;;;53.92;48.92;;;11.10;99.90;;;;;;5032325;28;20513;-76
2023/12/21 02:48:22;;;;;;;42.80;38.55;;;11.10;99.90;;;;;;5031859;28;20049;-75
2023/12/21 02:50:48;;;;;;;44.33;39.70;;;11.10;99.90;;;;;;5032147;28;20022;-75
2023/12/21 02:53:15;;;;;;;45.85;41.50;;;11.10;99.90;;;;;;5031119;28;20038;-75
2023/12/21 02:55:41;;;;;;;41.58;36.97;;;11.10;99.90;;;;;;5032584;28;20053;-75
2023/12/21 02:58:07;;;;;;;50.13;45.28;;;11.00;99.90;;;;;;5031751;28;20069;-71
2023/12/21 03:00:33;;;;;;;66.80;60.72;;;11.00;99.90;;;;;;5031193;28;20029;-71
2023/12/21 03:02:59;;;;;;;46.63;42.00;;;11.10;99.90;;;;;;5032303;28;20033;-71
2023/12/21 03:05:25;;;;;;;46.58;42.33;;;11.10;99.90;;;;;;5032018;28;20041;-71
2023/12/21 03:07:53;;;;;;;47.22;42.63;;;11.10;99.90;;;;;;5031557;28;20390;-72
2023/12/21 03:10:20;;;;;;;47.78;42.95;;;11.10;99.90;;;;;;5032044;28;20045;-71
2023/12/21 03:12:46;;;;;;;52.05;47.72;;;11.10;99.90;;;;;;5032109;28;20695;-72
2023/12/21 03:15:12;;;;;;;52.70;48.28;;;11.10;99.90;;;;;;5031485;28;20045;-72
2023/12/21 03:17:38;;;;;;;53.60;48.50;;;11.10;99.90;;;;;;5035501;28;20037;-72
2023/12/21 03:20:06;;;;;;;45.75;41.05;;;11.10;99.90;;;;;;5032461;28;20048;-72
2023/12/21 03:22:36;;;;;;;44.65;40.35;;;11.10;99.90;;;;;;5028044;28;20041;-72
2023/12/21 03:25:02;;;;;;;50.47;46.17;;;11.10;99.90;;;;;;5030614;28;20413;-72
2023/12/21 03:27:28;;;;;;;43.38;38.63;;;11.10;99.90;;;;;;5032301;28;20029;-72
2023/12/21 03:29:54;;;;;;;42.75;38.22;;;11.10;99.90;;;;;;5032081;28;20046;-71
2023/12/21 03:32:20;;;;;;;53.00;48.47;;;11.10;99.90;;;;;;5031221;28;20040;-71
2023/12/21 03:34:48;;;;;;;44.38;39.85;;;11.10;99.90;;;;;;5030352;28;20045;-72
2023/12/21 03:37:14;;;;;;;46.47;42.30;;;11.10;99.90;;;;;;5013841;28;20037;-72
2023/12/21 03:39:41;;;;;;;49.60;45.40;;;11.20;99.90;;;;;;5030919;28;20037;-72
2023/12/21 03:42:07;;;;;;;44.05;39.58;;;11.20;99.90;;;;;;5031399;28;20030;-72
2023/12/21 03:44:33;;;;;;;44.42;39.55;;;11.10;99.90;;;;;;5032499;28;20033;-72
2023/12/21 03:47:00;;;;;;;48.38;44.40;;;11.20;99.90;;;;;;5030917;28;20041;-72
2023/12/21 03:49:28;;;;;;;46.72;42.75;;;11.20;99.90;;;;;;5032096;28;20045;-72
2023/12/21 03:51:56;;;;;;;56.55;51.80;;;11.20;99.90;;;;;;5032096;28;20044;-72
2023/12/21 03:54:22;;;;;;;50.25;46.53;;;11.20;99.90;;;;;;5032017;28;20041;-72
2023/12/21 03:56:48;;;;;;;66.20;61.55;;;11.10;99.90;;;;;;5030843;28;20029;-71
2023/12/21 03:59:14;;;;;;;50.95;47.22;;;11.10;99.90;;;;;;5031979;28;20029;-72
2023/12/21 04:01:40;;;;;;;56.55;52.22;;;11.20;99.90;;;;;;5030674;28;20033;-72
2023/12/21 04:04:06;;;;;;;52.15;48.45;;;11.20;99.90;;;;;;5030804;28;20036;-71
2023/12/21 04:06:32;;;;;;;48.97;45.30;;;11.20;99.90;;;;;;5031744;28;20065;-71
2023/12/21 04:08:58;;;;;;;50.05;46.00;;;11.20;99.90;;;;;;5031005;28;20065;-72
2023/12/21 04:11:24;;;;;;;50.63;46.65;;;11.20;99.90;;;;;;5030341;28;20041;-75
2023/12/21 04:13:51;;;;;;;37.53;34.75;;;11.20;99.90;;;;;;5032156;28;20381;-75
2023/12/21 04:16:17;;;;;;;37.15;33.85;;;11.20;99.90;;;;;;5030335;28;20048;-75
2023/12/21 04:18:43;;;;;;;39.80;36.30;;;11.30;99.90;;;;;;5031682;28;20389;-76
2023/12/21 04:21:09;;;;;;;34.97;31.67;;;11.30;99.90;;;;;;5029747;28;20053;-76
2023/12/21 04:23:35;;;;;;;38.78;35.58;;;11.30;99.90;;;;;;5031787;28;20037;-76
2023/12/21 04:26:01;;;;;;;44.60;41.38;;;11.30;99.90;;;;;;5029978;28;20038;-75
2023/12/21 04:28:27;;;;;;;44.70;41.25;;;11.30;99.90;;;;;;5030309;28;20389;-75
2023/12/21 04:30:54;;;;;;;36.35;33.72;;;11.30;99.90;;;;;;5029954;28;20037;-76
2023/12/21 04:33:20;;;;;;;38.53;35.45;;;11.30;99.90;;;;;;5031694;28;20029;-75
2023/12/21 04:35:46;;;;;;;35.13;32.10;;;11.30;99.90;;;;;;5030163;28;20500;-75
2023/12/21 04:38:12;;;;;;;37.17;34.42;;;11.30;99.90;;;;;;5030185;28;20409;-76
2023/12/21 04:40:38;;;;;;;44.05;40.33;;;11.30;99.90;;;;;;5030191;28;20041;-75
2023/12/21 04:43:06;;;;;;;36.50;34.03;;;11.30;99.90;;;;;;5031104;28;20030;-76
2023/12/21 04:45:32;;;;;;;43.08;40.00;;;11.30;99.90;;;;;;5029290;28;20036;-76
2023/12/21 04:47:58;;;;;;;36.22;33.60;;;11.30;99.90;;;;;;5030085;28;20033;-76
2023/12/21 04:50:24;;;;;;;36.88;33.83;;;11.30;99.90;;;;;;5029923;28;20040;-76
2023/12/21 04:52:52;;;;;;;39.10;36.33;;;11.30;99.90;;;;;;5029947;28;20052;-76
2023/12/21 04:55:18;;;;;;;37.15;34.03;;;11.30;99.90;;;;;;5030958;28;20092;-76
2023/12/21 04:57:44;;;;;;;38.85;36.20;;;11.30;99.90;;;;;;5031463;28;20040;-76
2023/12/21 05:00:11;;;;;;;37.28;34.35;;;11.30;99.90;;;;;;5030182;28;20037;-76
2023/12/21 05:02:37;;;;;;;32.10;29.52;;;11.40;99.90;;;;;;5031756;28;20374;-75
2023/12/21 05:05:04;;;;;;;35.30;32.38;;;11.40;99.90;;;;;;5031322;28;20034;-75
2023/12/21 05:07:30;;;;;;;38.28;35.80;;;11.40;99.90;;;;;;5029889;28;20030;-75
2023/12/21 05:09:59;;;;;;;36.28;33.88;;;11.40;99.90;;;;;;5031117;28;20034;-75
2023/12/21 05:12:26;;;;;;;36.53;33.60;;;11.40;99.90;;;;;;5031183;28;20037;-75
2023/12/21 05:14:53;;;;;;;36.33;34.03;;;11.40;99.90;;;;;;5029336;28;20021;-75
2023/12/21 05:17:19;;;;;;;34.95;32.40;;;11.40;99.90;;;;;;5032417;28;20413;-75
2023/12/21 05:19:46;;;;;;;34.13;31.45;;;11.50;99.90;;;;;;5032017;28;20037;-76
2023/12/21 05:22:12;;;;;;;50.05;46.78;;;11.50;99.90;;;;;;5033451;28;20045;-75
2023/12/21 05:24:38;;;;;;;39.30;36.30;;;11.50;99.90;;;;;;5015482;28;20493;-76
2023/12/21 05:27:05;;;;;;;116.15;46.42;;;11.40;99.90;;;;;;5016764;28;20037;-76
2023/12/21 05:29:31;;;;;;;31.98;30.00;;;11.40;99.90;;;;;;5032975;28;20389;-75
2023/12/21 05:31:57;;;;;;;34.30;30.88;;;11.50;99.90;;;;;;4999010;28;20040;-75
2023/12/21 05:34:24;;;;;;;314.55;59.33;;;11.50;99.90;;;;;;5033570;28;20056;-75
2023/12/21 05:36:50;;;;;;;104.90;36.83;;;11.50;99.90;;;;;;5034269;28;20052;-75
2023/12/21 05:39:16;;;;;;;32.78;30.58;;;11.50;99.90;;;;;;5033467;28;20034;-76
2023/12/21 05:41:43;;;;;;;223.93;40.97;;;11.60;99.90;;;;;;5016368;28;20038;-75
2023/12/21 05:44:09;;;;;;;340.08;50.88;;;11.50;99.90;;;;;;5031545;28;20474;-72
2023/12/21 05:46:35;;;;;;;223.38;60.05;;;11.50;99.90;;;;;;5032840;28;20045;-72
2023/12/21 05:49:01;;;;;;;169.35;67.50;;;11.50;99.90;;;;;;5033935;28;20041;-72
2023/12/21 05:51:27;;;;;;;184.05;48.92;;;11.50;99.90;;;;;;5032737;28;20029;-72
2023/12/21 05:53:53;;;;;;;353.40;61.05;;;11.60;99.90;;;;;;5034549;28;20037;-72
2023/12/21 05:56:19;;;;;;;54.78;50.90;;;11.50;99.90;;;;;;5032448;28;20050;-72
2023/12/21 05:58:45;;;;;;;309.02;67.93;;;11.50;99.90;;;;;;5033999;28;20052;-72
2023/12/21 06:01:11;;;;;;;245.05;64.47;;;11.60;99.90;;;;;;5033321;28;20045;-73
2023/12/21 06:03:37;;;;;;;91.47;78.97;;;11.50;99.90;;;;;;5034093;28;20040;-72
2023/12/21 06:06:04;;;;;;;83.80;59.35;;;11.50;99.90;;;;;;5035466;28;20033;-72
2023/12/21 06:08:30;;;;;;;77.43;71.32;;;11.50;99.90;;;;;;5045450;28;20036;-72
2023/12/21 06:10:56;;;;;;;202.10;74.53;;;11.50;99.90;;;;;;5042457;28;20037;-72
2023/12/21 06:13:22;;;;;;;57.58;53.08;;;11.50;99.90;;;;;;5033078;28;20033;-72
2023/12/21 06:15:48;;;;;;;299.27;83.90;;;11.50;99.90;;;;;;5032637;28;20414;-72
2023/12/21 06:18:14;;;;;;;378.38;94.07;;;11.50;99.90;;;;;;5032744;28;20028;-72
2023/12/21 06:20:41;;;;;;;95.30;59.17;;;11.50;99.90;;;;;;5033227;28;20502;-72
2023/12/21 06:23:07;;;;;;;1838.28;309.67;;;11.50;99.90;;;;;;5033806;28;20481;-72
2023/12/21 06:25:33;;;;;;;57.33;53.53;;;11.50;99.90;;;;;;5031588;28;20129;-72
2023/12/21 06:27:59;;;;;;;57.85;54.38;;;11.50;99.90;;;;;;5032950;28;20474;-72
2023/12/21 06:30:25;;;;;;;388.75;90.93;;;11.50;99.90;;;;;;5032775;28;20037;-72
2023/12/21 06:32:51;;;;;;;116.35;44.25;;;11.50;99.90;;;;;;5032294;28;20449;-72
2023/12/21 06:35:17;;;;;;;60.45;56.80;;;11.50;99.90;;;;;;5033223;28;20026;-73
2023/12/21 06:37:44;;;;;;;70.57;66.28;;;11.50;99.90;;;;;;5032862;28;20033;-72
2023/12/21 06:40:10;;;;;;;466.35;85.95;;;11.50;99.90;;;;;;5031381;28;20022;-72
2023/12/21 06:42:36;;;;;;;83.47;69.63;;;11.50;99.90;;;;;;5031562;28;20040;-72
2023/12/21 06:45:03;;;;;;;1127.32;135.48;;;11.60;99.90;;;;;;5031390;28;20029;-71
2023/12/21 06:47:29;;;;;;;211.25;80.38;;;11.60;99.90;;;;;;5031623;28;20050;-72
2023/12/21 06:49:55;;;;;;;72.82;68.72;;;11.60;99.90;;;;;;5033190;28;20029;-72
2023/12/21 06:52:21;;;;;;;147.73;63.28;;;11.60;99.90;;;;;;5032174;28;20045;-74
2023/12/21 06:54:48;;;;;;;145.25;73.95;;;11.50;99.90;;;;;;5032600;28;20037;-74
2023/12/21 06:57:15;;;;;;;162.30;51.40;;;11.60;99.90;;;;;;5032742;28;20504;-74
2023/12/21 06:59:41;;;;;;;81.20;75.75;;;11.60;99.90;;;;;;5027265;28;20742;-74
2023/12/21 07:02:08;;;;;;;736.95;107.07;;;11.50;99.90;;;;;;5029081;28;20041;-75
2023/12/21 07:04:34;;;;;;;105.72;96.60;;;11.60;99.90;;;;;;5032193;28;20021;-74
2023/12/21 07:07:00;;;;;;;121.38;113.43;;;11.60;99.90;;;;;;5030147;28;20025;-74
2023/12/21 07:09:27;;;;;;;153.27;143.48;;;11.60;99.90;;;;;;5031137;28;20465;-74
2023/12/21 07:11:53;;;;;;;119.10;107.07;;;11.60;99.90;;;;;;5030387;28;20049;-75
2023/12/21 07:14:19;;;;;;;173.23;108.35;;;11.50;99.90;;;;;;5031085;28;20679;-74
2023/12/21 07:16:45;;;;;;;220.75;82.22;;;11.50;99.90;;;;;;5030031;28;20041;-74
2023/12/21 07:19:11;;;;;;;100.63;90.53;;;11.50;99.90;;;;;;5030580;28;20036;-75
2023/12/21 07:21:37;;;;;;;221.07;91.90;;;11.50;99.90;;;;;;5030341;28;20414;-74
2023/12/21 07:24:05;;;;;;;71.78;67.50;;;11.50;99.90;;;;;;5031936;28;20033;-74
2023/12/21 07:26:31;;;;;;;238.00;68.70;;;11.50;99.90;;;;;;5029139;28;20029;-74
2023/12/21 07:28:57;;;;;;;170.88;156.80;;;11.50;99.90;;;;;;5030920;28;20025;-75
2023/12/21 07:31:23;;;;;;;153.95;146.02;;;11.50;99.90;;;;;;5031728;28;20033;-74
2023/12/21 07:33:50;;;;;;;139.43;113.53;;;11.60;99.90;;;;;;5032508;28;20032;-74
2023/12/21 07:36:16;;;;;;;254.63;134.18;;;11.50;99.90;;;;;;5017777;28;20386;-74
2023/12/21 07:38:43;;;;;;;199.82;111.15;;;11.50;99.90;;;;;;5027059;28;20485;-74
2023/12/21 07:41:10;;;;;;;185.88;166.93;;;11.50;99.90;;;;;;5027493;28;20528;-74
2023/12/21 07:43:37;;;;;;;309.52;61.28;;;11.50;99.90;;;;;;5012827;28;20018;-74
2023/12/21 07:46:03;;;;;;;173.25;94.20;;;11.50;99.90;;;;;;5010344;28;20030;-74
2023/12/21 07:48:29;;;;;;;124.25;116.50;;;11.50;99.90;;;;;;5011057;28;20025;-74
2023/12/21 07:50:55;;;;;;;232.45;78.82;;;11.50;99.90;;;;;;5011963;28;20473;-74
2023/12/21 07:53:21;;;;;;;69.95;63.95;;;11.60;99.90;;;;;;5026159;28;20227;-74
2023/12/21 07:55:48;;;;;;;66.85;60.55;;;11.50;99.90;;;;;;5029853;28;20358;-72
2023/12/21 07:58:14;;;;;;;88.78;83.90;;;11.50;99.90;;;;;;5030670;28;20029;-72
2023/12/21 08:00:40;;;;;;;79.60;73.30;;;11.50;99.90;;;;;;5029491;28;20049;-73
2023/12/21 08:03:06;;;;;;;490.23;75.25;;;11.50;99.90;;;;;;5031582;28;20048;-73
2023/12/21 08:05:32;;;;;;;108.45;84.43;;;11.50;99.90;;;;;;5031847;28;20029;-73
2023/12/21 08:07:58;;;;;;;70.53;41.67;;;11.50;99.90;;;;;;5031585;28;20028;-73
2023/12/21 08:10:24;;;;;;;94.35;89.35;;;11.60;99.90;;;;;;5016378;28;20049;-73
2023/12/21 08:12:51;;;;;;;164.30;59.53;;;11.60;99.90;;;;;;5011888;28;20026;-73
2023/12/21 08:15:17;;;;;;;39.67;36.10;;;11.60;99.90;;;;;;5011420;28;20459;-72
2023/12/21 08:17:44;;;;;;;402.15;65.45;;;11.60;99.90;;;;;;5010902;28;20041;-72
2023/12/21 08:20:12;;;;;;;46.70;44.20;;;11.60;99.90;;;;;;5028258;28;20478;-72
2023/12/21 08:22:38;;;;;;;46.60;43.85;;;11.70;99.90;;;;;;5030962;28;20045;-71
2023/12/21 08:25:04;;;;;;;63.88;59.28;;;11.70;99.90;;;;;;5031462;28;20021;-74
2023/12/21 08:27:30;;;;;;;90.93;84.57;;;11.70;99.90;;;;;;5013783;28;20056;-74
2023/12/21 08:29:57;;;;;;;190.77;71.53;;;11.80;99.90;;;;;;5040949;28;20480;-74
2023/12/21 08:32:23;;;;;;;176.57;106.70;;;11.70;99.90;;;;;;5038895;28;20049;-74
2023/12/21 08:34:49;;;;;;;213.27;85.65;;;11.80;99.90;;;;;;5030749;28;20470;-74
2023/12/21 08:37:15;;;;;;;109.50;103.82;;;11.70;99.90;;;;;;5029782;28;20041;-73
2023/12/21 08:39:41;;;;;;;106.28;100.68;;;11.70;99.90;;;;;;5030333;28;20188;-73
2023/12/21 08:42:10;;;;;;;226.75;97.82;;;11.70;99.90;;;;;;5030863;28;20413;-73
2023/12/21 08:44:37;;;;;;;120.22;68.57;;;11.70;99.90;;;;;;5030204;28;20101;-72
2023/12/21 08:47:05;;;;;;;93.07;88.38;;;11.80;99.90;;;;;;5029395;28;20033;-74
2023/12/21 08:49:31;;;;;;;285.33;232.13;;;11.80;99.90;;;;;;5029916;28;20025;-73
2023/12/21 08:51:57;;;;;;;135.98;128.82;;;11.80;99.90;;;;;;5031863;28;20025;-73
2023/12/21 08:54:23;;;;;;;136.48;129.38;;;11.80;99.90;;;;;;5035206;28;20029;-73
2023/12/21 08:56:52;;;;;;;65.45;62.13;;;11.80;99.90;;;;;;5029562;28;20054;-75
2023/12/21 08:59:18;;;;;;;697.17;111.80;;;11.80;99.90;;;;;;5028120;28;20421;-74
2023/12/21 09:01:44;;;;;;;129.32;117.72;;;11.80;99.90;;;;;;4991981;28;20030;-75
2023/12/21 09:04:10;;;;;;;148.23;74.72;;;11.80;99.90;;;;;;5033266;28;20032;-75
2023/12/21 09:06:37;;;;;;;309.05;126.00;;;11.80;99.90;;;;;;5033802;28;20036;-74
2023/12/21 09:09:03;;;;;;;64.18;60.38;;;11.90;99.90;;;;;;5031946;28;20037;-75
2023/12/21 09:11:29;;;;;;;108.30;101.90;;;11.90;99.90;;;;;;5034294;28;20025;-75
2023/12/21 09:13:56;;;;;;;87.20;82.45;;;11.80;99.90;;;;;;5033682;28;20029;-75
2023/12/21 09:16:22;;;;;;;109.15;89.88;;;11.90;99.90;;;;;;5031944;28;20076;-75
2023/12/21 09:18:48;;;;;;;263.20;132.38;;;11.90;99.90;;;;;;5031700;28;20490;-75
2023/12/21 09:21:14;;;;;;;520.60;102.72;;;12.00;99.90;;;;;;5033229;28;20045;-75
2023/12/21 09:23:41;;;;;;;60.45;57.03;;;11.90;99.90;;;;;;5034735;28;20044;-75
2023/12/21 09:26:10;;;;;;;144.32;86.22;;;12.00;99.90;;;;;;5033078;28;20414;-75
2023/12/21 09:28:37;;;;;;;61.13;57.50;;;12.00;99.90;;;;;;5033117;28;20033;-75
2023/12/21 09:31:07;;;;;;;117.70;108.22;;;12.00;99.90;;;;;;5031289;28;20061;-75
2023/12/21 09:33:34;;;;;;;150.60;142.68;;;12.00;99.90;;;;;;5034379;28;20033;-75
2023/12/21 09:36:03;;;;;;;216.10;195.02;;;12.00;99.90;;;;;;5033500;28;20025;-75
2023/12/21 09:38:31;;;;;;;115.15;109.10;;;12.00;99.90;;;;;;5033608;28;20033;-75
2023/12/21 09:40:58;;;;;;;143.57;135.80;;;12.00;99.90;;;;;;5033880;28;20032;-75
2023/12/21 09:43:24;;;;;;;169.27;160.65;;;12.00;99.90;;;;;;5033010;28;20029;-75
2023/12/21 09:45:54;;;;;;;169.48;160.57;;;12.00;99.90;;;;;;5032898;28;20037;-75
2023/12/21 09:48:23;;;;;;;111.25;105.38;;;12.00;99.90;;;;;;5020963;28;20418;-75
2023/12/21 09:50:49;;;;;;;129.07;122.20;;;12.00;99.90;;;;;;5029837;28;20029;-75
2023/12/21 09:53:21;;;;;;;148.32;99.07;;;12.00;99.90;;;;;;5031459;28;20381;-75
2023/12/21 09:55:47;;;;;;;108.75;102.75;;;12.10;99.90;;;;;;5020412;28;20029;-75
2023/12/21 09:58:13;;;;;;;88.10;83.45;;;12.10;99.90;;;;;;5009415;28;20042;-75
2023/12/21 10:00:39;;;;;;;202.82;190.38;;;12.20;99.90;;;;;;5030450;28;20394;-76
2023/12/21 10:03:06;;;;;;;387.05;362.13;;;12.20;99.90;;;;;;5032181;28;20478;-75
2023/12/21 10:05:35;;;;;;;352.05;329.80;;;12.20;99.90;;;;;;5032116;28;20501;-75
2023/12/21 10:08:01;;;;;;;292.38;273.27;;;12.30;99.90;;;;;;5027226;28;20049;-75
2023/12/21 10:10:27;;;;;;;398.70;373.45;;;12.30;99.90;;;;;;5027891;28;20037;-75
2023/12/21 10:12:53;;;;;;;354.30;331.60;;;12.30;99.90;;;;;;5030715;28;20037;-75
2023/12/21 10:15:20;;;;;;;419.42;394.70;;;12.30;99.90;;;;;;5031328;28;20041;-75
2023/12/21 10:17:46;;;;;;;353.73;332.15;;;12.20;99.90;;;;;;5031168;28;20056;-75
2023/12/21 10:20:12;;;;;;;315.45;286.77;;;12.20;99.90;;;;;;5031489;28;20471;-75
2023/12/21 10:22:40;;;;;;;453.30;424.83;;;12.20;99.90;;;;;;5031404;28;20371;-75
2023/12/21 10:25:07;;;;;;;251.90;237.75;;;12.20;99.90;;;;;;5033147;28;20450;-75
2023/12/21 10:27:34;;;;;;;159.18;147.13;;;12.20;99.90;;;;;;5031965;28;20037;-75
2023/12/21 10:30:01;;;;;;;153.98;145.80;;;12.30;99.90;;;;;;5032875;28;20056;-75
2023/12/21 10:32:28;;;;;;;139.52;132.32;;;12.30;99.90;;;;;;5030133;28;20033;-75
2023/12/21 10:34:54;;;;;;;288.48;272.38;;;12.40;99.90;;;;;;5015239;28;20037;-75
2023/12/21 10:37:21;;;;;;;124.45;117.20;;;12.40;99.90;;;;;;5029307;28;20037;-75
2023/12/21 10:39:48;;;;;;;155.70;145.63;;;12.50;99.90;;;;;;5014553;28;20026;-75
2023/12/21 10:42:14;;;;;;;92.53;87.65;;;12.60;99.90;;;;;;5022407;28;20033;-75
2023/12/21 10:44:44;;;;;;;92.40;87.53;;;12.50;99.90;;;;;;5030493;28;20037;-75
2023/12/21 10:47:11;;;;;;;205.65;194.50;;;12.60;99.90;;;;;;5029889;28;20025;-75
2023/12/21 10:49:37;;;;;;;103.88;98.35;;;12.60;99.90;;;;;;5008829;28;20030;-75
2023/12/21 10:52:04;;;;;;;92.20;87.43;;;12.60;99.90;;;;;;5009373;28;20524;-75
2023/12/21 10:54:30;;;;;;;125.63;119.20;;;12.60;99.90;;;;;;5015325;28;20394;-75
2023/12/21 10:56:56;;;;;;;185.65;107.68;;;12.70;99.90;;;;;;5015053;28;20037;-75
2023/12/21 10:59:22;;;;;;;98.30;93.30;;;12.70;99.90;;;;;;5026173;28;20030;-75
2023/12/21 11:01:49;;;;;;;99.95;94.50;;;12.70;99.90;;;;;;5013264;28;20037;-76
2023/12/21 11:04:16;;;;;;;114.15;108.22;;;12.70;99.90;;;;;;5031220;28;20030;-75
2023/12/21 11:06:43;;;;;;;116.80;110.07;;;12.70;99.90;;;;;;5031206;28;20029;-75
2023/12/21 11:09:09;;;;;;;121.63;115.40;;;12.80;99.90;;;;;;5030936;28;20029;-75
2023/12/21 11:11:36;;;;;;;154.10;145.93;;;12.80;99.90;;;;;;5013618;28;20025;-75
2023/12/21 11:14:02;;;;;;;115.10;109.03;;;12.90;99.90;;;;;;5025783;28;20029;-75
2023/12/21 11:16:50;;;;;;;152.27;144.25;;;12.90;99.90;;;;;;5031285;28;20435;-75
2023/12/21 11:19:20;;;;;;;83.55;79.28;;;13.00;99.90;;;;;;5029256;28;20032;-74
2023/12/21 11:21:46;;;;;;;90.32;85.70;;;12.90;99.90;;;;;;5030847;28;20482;-76
2023/12/21 11:24:25;;;;;;;176.63;167.48;;;13.00;99.90;;;;;;5013376;28;20057;-73
2023/12/21 11:26:51;;;;;;;282.13;267.27;;;13.00;99.90;;;;;;5009363;28;20040;-74
2023/12/21 11:29:26;;;;;;;145.18;137.88;;;13.00;99.90;;;;;;5029604;28;20018;-73
2023/12/21 11:31:52;;;;;;;166.98;158.52;;;13.10;99.90;;;;;;5031339;28;20044;-73
2023/12/21 11:34:20;;;;;;;130.05;123.50;;;13.10;99.90;;;;;;5029884;28;20037;-73
2023/12/21 11:36:50;;;;;;;111.00;105.57;;;13.20;99.90;;;;;;5019417;28;20037;-73
2023/12/21 11:39:18;;;;;;;134.48;127.65;;;13.10;99.90;;;;;;5018322;28;20025;-73
2023/12/21 11:41:49;;;;;;;126.93;113.90;;;13.10;99.90;;;;;;5014143;28;20030;-73
2023/12/21 11:44:15;;;;;;;129.05;122.03;;;13.10;99.90;;;;;;5011847;28;20025;-74
2023/12/21 11:46:41;;;;;;;162.05;153.68;;;13.20;99.90;;;;;;5028506;28;20401;-74
2023/12/21 11:49:24;;;;;;;190.13;180.55;;;13.10;99.90;;;;;;5030194;28;20032;-74
2023/12/21 11:51:50;;;;;;;172.45;163.75;;;13.10;99.90;;;;;;5027054;28;20409;-74
2023/12/21 11:54:21;;;;;;;124.30;118.05;;;13.10;99.90;;;;;;5031001;28;20044;-74
2023/12/21 11:56:47;;;;;;;;;;;13.10;99.90;;;;;;5028716;28;20493;-73
2023/12/21 11:59:14;;;;;;;110.57;104.95;;;13.00;99.90;;;;;;5029936;28;19916;-74
2023/12/21 12:01:41;;;;;;;131.60;125.03;;;13.10;99.90;;;;;;5030671;28;20502;-74
2023/12/21 12:04:11;;;;;;;167.60;159.23;;;13.00;99.90;;;;;;5013738;28;20048;-74
2023/12/21 12:06:38;;;;;;;154.52;146.50;;;13.10;99.90;;;;;;5027407;28;20033;-74
2023/12/21 12:09:04;;;;;;;126.82;120.57;;;13.00;99.90;;;;;;5015818;28;20477;-74
2023/12/21 12:11:30;;;;;;;183.88;174.65;;;13.10;99.90;;;;;;5030569;28;20037;-74
2023/12/21 12:13:58;;;;;;;174.40;165.52;;;13.10;99.90;;;;;;5028941;28;20049;-74
2023/12/21 12:16:24;;;;;;;99.47;94.57;;;13.10;99.90;;;;;;5028095;28;20049;-75
2023/12/21 12:18:50;;;;;;;134.48;127.63;;;13.10;99.90;;;;;;5026186;28;20045;-76